Ingersoll, Canada
Current Conditions -  °F | °C
As of 10:00 AM on Wednesday 22 Oct 2014 (Local Time) from CYXU Reporting Station
Few Clouds Few Clouds  
Wind Chill: 37°   Ceiling: Unl
Heat Index: 43°   Visibility: 15mi
Dew Point: 36°   Wind: 10mph
Humidity: 76%   Direction: 350°N
Pressure: 30.28"   Gusts: NA
Location:  43.04°N, 80.88°W
Report Text: CYXU 221400Z 35009KT 15SM FEW050 06/02 A3028 RMK SC1 SC TR SLP262
Loading
Personal Weather Stations






























Interactive Weather Map
Tropical Storm Tracking
New forecast layout! Learn more

10-Day Weather Forecast

Advertisements
Track Severe Weather on mobile